createdAt,value
2017-08-01T00:00:29.510Z,12.40
2017-08-01T00:02:57.089Z,6.90
2017-08-01T00:05:24.657Z,12.80
2017-08-01T00:07:52.257Z,7.30
2017-08-01T00:10:19.841Z,11.93
2017-08-01T00:12:47.407Z,14.67
2017-08-01T00:15:15.041Z,10.70
2017-08-01T00:17:42.625Z,13.77
2017-08-01T00:20:10.222Z,7.90
2017-08-01T00:22:37.790Z,9.37
2017-08-01T00:25:05.361Z,9.93
2017-08-01T00:27:32.942Z,13.60
2017-08-01T00:30:01.263Z,10.30
2017-08-01T00:32:28.832Z,8.40
2017-08-01T00:34:56.484Z,6.83
2017-08-01T00:37:24.054Z,6.87
2017-08-01T00:39:51.625Z,6.67
2017-08-01T00:42:19.236Z,6.10
2017-08-01T00:44:47.577Z,6.70
2017-08-01T00:47:15.133Z,6.33
2017-08-01T00:49:42.750Z,6.40
2017-08-01T00:52:10.299Z,12.40
2017-08-01T00:54:37.862Z,8.17
2017-08-01T00:57:05.433Z,8.40
2017-08-01T00:59:33.023Z,7.67
2017-08-01T01:02:00.587Z,5.57
2017-08-01T01:04:28.156Z,7.90
2017-08-01T01:06:55.720Z,6.33
2017-08-01T01:09:23.316Z,9.57
2017-08-01T01:11:50.873Z,8.37
2017-08-01T01:14:19.200Z,10.10
2017-08-01T01:16:46.781Z,9.03
2017-08-01T01:19:14.334Z,12.77
2017-08-01T01:21:41.930Z,15.40
2017-08-01T01:24:09.482Z,8.97
2017-08-01T01:26:37.089Z,10.93
2017-08-01T01:29:04.629Z,7.13
2017-08-01T01:31:32.188Z,10.43
2017-08-01T01:33:59.765Z,10.07
2017-08-01T01:36:27.333Z,10.20
2017-08-01T01:38:54.922Z,8.73
2017-08-01T01:41:22.493Z,14.53
2017-08-01T01:43:50.060Z,9.03
2017-08-01T01:46:17.608Z,7.60
2017-08-01T01:48:45.177Z,14.47
2017-08-01T01:51:12.748Z,13.43
2017-08-01T01:53:40.428Z,9.80
2017-08-01T01:56:07.992Z,9.53
2017-08-01T01:58:35.562Z,8.30
2017-08-01T02:01:03.120Z,8.50
2017-08-01T02:03:30.716Z,13.80
2017-08-01T02:05:58.286Z,14.40
2017-08-01T02:08:25.871Z,7.83
2017-08-01T02:10:53.442Z,11.73
2017-08-01T02:13:21.009Z,10.83
2017-08-01T02:15:49.373Z,6.30
2017-08-01T02:18:17.208Z,10.33
2017-08-01T02:20:44.762Z,11.50
2017-08-01T02:23:12.349Z,12.50
2017-08-01T02:25:39.937Z,8.93
2017-08-01T02:28:07.502Z,10.60
2017-08-01T02:30:35.097Z,12.70
2017-08-01T02:33:02.667Z,13.10
2017-08-01T02:35:30.240Z,6.40
2017-08-01T02:37:57.810Z,9.10
2017-08-01T02:40:25.373Z,10.90
2017-08-01T02:42:52.955Z,11.70
2017-08-01T02:45:20.591Z,9.17
2017-08-01T02:47:48.193Z,16.27
2017-08-01T02:50:16.545Z,10.70
2017-08-01T02:52:44.125Z,7.23
2017-08-01T02:55:11.702Z,8.87
2017-08-01T02:57:40.049Z,9.07
2017-08-01T03:00:07.645Z,9.17
2017-08-01T03:02:35.221Z,11.43
2017-08-01T03:05:02.805Z,7.63
2017-08-01T03:07:30.411Z,12.13
2017-08-01T03:09:58.768Z,8.33
2017-08-01T03:12:26.334Z,8.17
2017-08-01T03:14:53.918Z,8.57
2017-08-01T03:17:22.323Z,9.53
2017-08-01T03:19:49.898Z,7.03
2017-08-01T03:22:17.506Z,9.30
2017-08-01T03:24:45.135Z,10.13
2017-08-01T03:27:12.697Z,6.90
2017-08-01T03:29:40.274Z,8.50
2017-08-01T03:32:07.820Z,6.40
2017-08-01T03:34:35.401Z,9.87
2017-08-01T03:37:02.989Z,6.77
2017-08-01T03:39:30.606Z,15.23
2017-08-01T03:41:58.175Z,9.40
2017-08-01T03:44:25.730Z,10.73
2017-08-01T03:46:53.313Z,10.03
2017-08-01T03:49:20.944Z,7.27
2017-08-01T03:51:48.552Z,10.37
2017-08-01T03:54:16.106Z,12.33
2017-08-01T03:56:43.697Z,10.77
2017-08-01T03:59:11.275Z,9.47
2017-08-01T04:01:38.958Z,12.33
2017-08-01T04:04:06.550Z,11.60
2017-08-01T04:06:34.113Z,12.53
2017-08-01T04:09:01.672Z,13.93
2017-08-01T04:11:29.245Z,7.50
2017-08-01T04:13:57.586Z,6.93
2017-08-01T04:16:25.166Z,9.97
2017-08-01T04:18:52.793Z,8.40
2017-08-01T04:21:20.364Z,9.80
2017-08-01T04:23:47.942Z,9.13
2017-08-01T04:26:15.514Z,9.17
2017-08-01T04:28:43.073Z,7.43
2017-08-01T04:31:10.625Z,8.90
2017-08-01T04:33:38.192Z,7.33
2017-08-01T04:36:05.755Z,8.10
2017-08-01T04:38:33.320Z,7.90
2017-08-01T04:41:00.882Z,7.73
2017-08-01T04:43:28.483Z,11.03
2017-08-01T04:45:56.030Z,11.20
2017-08-01T04:48:23.589Z,7.63
2017-08-01T04:50:51.925Z,7.57
2017-08-01T04:53:19.563Z,9.80
2017-08-01T04:55:47.133Z,7.03
2017-08-01T04:58:14.704Z,9.20
2017-08-01T05:00:42.284Z,11.90
2017-08-01T05:03:09.874Z,9.63
2017-08-01T05:05:38.227Z,7.73
2017-08-01T05:08:05.802Z,7.70
2017-08-01T05:10:33.372Z,11.10
2017-08-01T05:13:00.929Z,8.90
2017-08-01T05:15:29.282Z,10.03
2017-08-01T05:17:56.847Z,11.20
2017-08-01T05:20:24.430Z,10.07
2017-08-01T05:22:52.749Z,7.80
2017-08-01T05:25:20.318Z,8.83
2017-08-01T05:27:47.874Z,7.57
2017-08-01T05:30:15.435Z,6.60
2017-08-01T05:32:43.006Z,6.97
2017-08-01T05:35:10.589Z,10.17
2017-08-01T05:37:38.161Z,11.63
2017-08-01T05:40:05.734Z,11.47
2017-08-01T05:42:34.094Z,21.03
2017-08-01T05:45:01.666Z,7.73
2017-08-01T05:47:29.225Z,9.20
2017-08-01T05:49:56.827Z,10.50
2017-08-01T05:52:24.370Z,8.97
2017-08-01T05:54:52.064Z,11.37
2017-08-01T05:57:19.633Z,12.07
2017-08-01T05:59:47.196Z,10.50
2017-08-01T06:02:14.770Z,12.93
2017-08-01T06:04:42.345Z,14.00
2017-08-01T06:07:09.933Z,10.60
2017-08-01T06:09:38.253Z,12.30
2017-08-01T06:12:05.833Z,7.37
2017-08-01T06:14:33.441Z,11.57
2017-08-01T06:17:01.775Z,11.00
2017-08-01T06:19:29.337Z,8.70
2017-08-01T06:21:56.914Z,8.90
2017-08-01T06:24:24.476Z,11.13
2017-08-01T06:26:52.056Z,14.13
2017-08-01T06:29:20.437Z,10.37
2017-08-01T06:31:48.032Z,6.80
2017-08-01T06:34:15.620Z,6.97
2017-08-01T06:36:43.207Z,8.67
2017-08-01T06:39:10.805Z,7.50
2017-08-01T06:41:38.359Z,9.27
2017-08-01T06:44:05.980Z,7.60
2017-08-01T06:46:33.538Z,8.90
2017-08-01T06:49:01.139Z,10.23
2017-08-01T06:51:29.470Z,8.37
2017-08-01T06:53:57.101Z,9.80
2017-08-01T06:56:24.695Z,9.23
2017-08-01T06:58:52.253Z,7.70
2017-08-01T07:01:20.719Z,11.00
2017-08-01T07:03:48.306Z,9.13
2017-08-01T07:06:15.904Z,12.83
2017-08-01T07:08:43.503Z,13.27
2017-08-01T07:11:11.155Z,9.97
2017-08-01T07:13:38.776Z,12.00
2017-08-01T07:16:07.359Z,12.50
2017-08-01T07:18:34.905Z,12.90
2017-08-01T07:21:02.529Z,10.70
2017-08-01T07:23:30.118Z,11.17
2017-08-01T07:25:57.671Z,13.23
2017-08-01T07:28:25.264Z,12.10
2017-08-01T07:30:53.788Z,16.10
2017-08-01T07:33:21.362Z,14.60
2017-08-01T07:35:49.030Z,16.37
2017-08-01T07:38:16.598Z,10.13
2017-08-01T07:40:44.183Z,10.13
2017-08-01T07:43:11.750Z,11.27
2017-08-01T07:45:40.135Z,13.33
2017-08-01T07:48:08.470Z,10.97
2017-08-01T07:50:36.042Z,11.97
2017-08-01T07:53:03.625Z,13.57
2017-08-01T07:55:31.257Z,12.70
2017-08-01T07:57:59.014Z,13.80
2017-08-01T08:00:26.597Z,12.70
2017-08-01T08:02:54.157Z,13.43
2017-08-01T08:05:21.738Z,8.90
2017-08-01T08:07:49.317Z,18.13
2017-08-01T08:10:16.890Z,12.30
2017-08-01T08:12:44.489Z,8.73
2017-08-01T08:15:12.061Z,14.30
2017-08-01T08:17:39.718Z,14.17
2017-08-01T08:20:07.318Z,16.77
2017-08-01T08:22:35.641Z,10.57
2017-08-01T08:25:03.195Z,9.77
2017-08-01T08:27:30.889Z,19.83
2017-08-01T08:29:58.457Z,17.97
2017-08-01T08:32:26.049Z,14.60
2017-08-01T08:34:54.386Z,15.90
2017-08-01T08:37:21.987Z,11.50
2017-08-01T08:39:50.305Z,12.47
2017-08-01T08:42:17.884Z,13.17
2017-08-01T08:44:45.444Z,12.17
2017-08-01T08:47:13.017Z,9.17
2017-08-01T08:49:40.593Z,18.23
2017-08-01T08:52:08.172Z,11.93
2017-08-01T08:54:36.533Z,13.00
2017-08-01T08:57:04.103Z,10.50
2017-08-01T08:59:31.672Z,9.83
2017-08-01T09:02:00.025Z,6.30
2017-08-01T09:04:27.603Z,12.03
2017-08-01T09:06:55.170Z,8.10
2017-08-01T09:09:23.525Z,9.53
2017-08-01T09:11:51.110Z,10.37
2017-08-01T09:14:18.761Z,9.37
2017-08-01T09:16:46.354Z,12.43
2017-08-01T09:19:13.930Z,10.23
2017-08-01T09:21:41.517Z,10.40
2017-08-01T09:24:09.082Z,13.73
2017-08-01T09:26:36.642Z,18.40
2017-08-01T09:29:04.228Z,15.13
2017-08-01T09:31:31.790Z,16.97
2017-08-01T09:34:00.144Z,16.70
2017-08-01T09:36:27.711Z,13.67
2017-08-01T09:38:55.313Z,12.00
2017-08-01T09:41:23.633Z,13.07
2017-08-01T09:43:51.189Z,17.23
2017-08-01T09:46:18.741Z,13.30
2017-08-01T09:48:46.697Z,15.20
2017-08-01T09:51:14.270Z,18.77
2017-08-01T09:53:41.873Z,18.47
2017-08-01T09:56:09.450Z,19.43
2017-08-01T09:58:37.026Z,17.30
2017-08-01T10:01:04.669Z,18.23
2017-08-01T10:03:32.263Z,18.40
2017-08-01T10:05:59.860Z,16.30
2017-08-01T10:08:27.438Z,14.43
2017-08-01T10:10:55.001Z,17.23
2017-08-01T10:13:22.571Z,16.40
2017-08-01T10:15:50.187Z,19.67
2017-08-01T10:18:17.740Z,15.20
2017-08-01T10:20:45.330Z,13.40
2017-08-01T10:23:12.907Z,15.03
2017-08-01T10:25:40.493Z,13.40
2017-08-01T10:28:08.082Z,12.57
2017-08-01T10:30:35.658Z,14.70
2017-08-01T10:33:03.281Z,13.13
2017-08-01T10:35:30.864Z,11.23
2017-08-01T10:37:58.477Z,12.40
2017-08-01T10:40:26.122Z,11.00
2017-08-01T10:42:53.669Z,12.53
2017-08-01T10:45:21.239Z,10.97
2017-08-01T10:47:48.813Z,12.60
2017-08-01T10:50:16.404Z,11.63
2017-08-01T10:52:43.964Z,14.33
2017-08-01T10:55:12.307Z,12.97
2017-08-01T10:57:39.897Z,14.53
2017-08-01T11:00:08.243Z,14.47
2017-08-01T11:02:35.805Z,13.03
2017-08-01T11:05:03.471Z,11.20
2017-08-01T11:07:31.542Z,12.40
2017-08-01T11:09:59.145Z,10.40
2017-08-01T11:12:27.489Z,13.60
2017-08-01T11:14:55.108Z,10.67
2017-08-01T11:17:22.777Z,13.00
2017-08-01T11:19:50.366Z,17.73
2017-08-01T11:22:18.017Z,10.80
2017-08-01T11:24:45.594Z,12.27
2017-08-01T11:27:13.203Z,13.20
2017-08-01T11:29:40.779Z,12.30
2017-08-01T11:32:08.407Z,10.00
2017-08-01T11:34:35.961Z,15.50
2017-08-01T11:37:04.299Z,15.60
2017-08-01T11:39:31.917Z,16.50
2017-08-01T11:42:00.256Z,11.60
2017-08-01T11:44:27.858Z,12.90
2017-08-01T11:46:56.181Z,10.83
2017-08-01T11:49:23.844Z,13.93
2017-08-01T11:51:52.651Z,10.90
2017-08-01T11:54:20.256Z,11.63
2017-08-01T11:56:47.845Z,13.27
2017-08-01T11:59:15.433Z,13.37
2017-08-01T12:01:43.025Z,10.90
2017-08-01T12:04:11.358Z,12.80
2017-08-01T12:06:43.254Z,13.50
2017-08-01T12:09:10.813Z,15.07
2017-08-01T12:11:38.413Z,12.63
2017-08-01T12:14:05.997Z,13.70
2017-08-01T12:16:33.565Z,16.07
2017-08-01T12:19:01.169Z,13.33
2017-08-01T12:21:29.518Z,16.83
2017-08-01T12:23:57.117Z,13.60
2017-08-01T12:26:25.486Z,16.07
2017-08-01T12:28:53.098Z,15.87
2017-08-01T12:31:20.692Z,13.30
2017-08-01T12:33:48.261Z,16.70
2017-08-01T12:36:15.854Z,10.70
2017-08-01T12:38:43.481Z,16.50
2017-08-01T12:41:11.057Z,14.87
2017-08-01T12:43:39.436Z,11.10
2017-08-01T12:46:07.030Z,14.17
2017-08-01T12:48:34.586Z,8.83
2017-08-01T12:51:02.152Z,11.67
2017-08-01T12:53:29.761Z,12.93
2017-08-01T12:55:57.342Z,10.40
2017-08-01T12:58:25.714Z,9.03
2017-08-01T13:00:53.350Z,8.93
2017-08-01T13:03:20.938Z,10.70
2017-08-01T13:05:48.517Z,12.40
2017-08-01T13:08:16.861Z,13.07
2017-08-01T13:10:44.458Z,11.63
2017-08-01T13:13:12.846Z,10.03
2017-08-01T13:15:40.422Z,11.70
2017-08-01T13:18:08.036Z,8.90
2017-08-01T13:20:35.627Z,8.80
2017-08-01T13:23:03.957Z,10.93
2017-08-01T13:25:32.308Z,11.27
2017-08-01T13:27:59.889Z,10.33
2017-08-01T13:30:27.475Z,13.00
2017-08-01T13:32:55.060Z,14.83
2017-08-01T13:35:23.392Z,10.47
2017-08-01T13:37:50.979Z,16.13
2017-08-01T13:40:18.604Z,10.00
2017-08-01T13:42:46.190Z,15.40
2017-08-01T13:45:13.808Z,16.40
2017-08-01T13:47:41.376Z,13.70
2017-08-01T13:50:08.952Z,13.30
2017-08-01T13:52:36.534Z,14.00
2017-08-01T13:55:04.133Z,14.13
2017-08-01T13:57:32.486Z,10.23
2017-08-01T14:00:00.050Z,14.37
2017-08-01T14:02:27.626Z,16.50
2017-08-01T14:04:55.185Z,15.80
2017-08-01T14:07:22.785Z,12.40
2017-08-01T14:09:50.354Z,9.00
2017-08-01T14:12:18.021Z,11.50
2017-08-01T14:14:45.621Z,12.80
2017-08-01T14:17:13.212Z,13.07
2017-08-01T14:19:40.801Z,17.33
2017-08-01T14:22:08.404Z,13.83
2017-08-01T14:24:35.982Z,15.77
2017-08-01T14:27:04.330Z,13.57
2017-08-01T14:29:31.910Z,14.20
2017-08-01T14:31:59.490Z,14.07
2017-08-01T14:34:27.819Z,13.77
2017-08-01T14:36:55.423Z,14.77
2017-08-01T14:39:23.842Z,14.20
2017-08-01T14:41:51.431Z,14.70
2017-08-01T14:44:19.053Z,15.63
2017-08-01T14:46:46.643Z,14.13
2017-08-01T14:49:14.235Z,17.70
2017-08-01T14:51:41.831Z,11.70
2017-08-01T14:54:09.426Z,9.77
2017-08-01T14:56:36.994Z,9.93
2017-08-01T14:59:04.557Z,12.90
2017-08-01T15:01:32.194Z,8.43
2017-08-01T15:03:59.754Z,12.23
2017-08-01T15:06:27.355Z,8.03
2017-08-01T15:08:54.921Z,14.00
2017-08-01T15:11:22.500Z,7.93
2017-08-01T15:13:50.853Z,8.10
2017-08-01T15:16:18.429Z,9.00
2017-08-01T15:18:46.295Z,10.10
2017-08-01T15:21:13.885Z,10.57
2017-08-01T15:23:41.469Z,6.20
2017-08-01T15:26:09.061Z,9.73
2017-08-01T15:28:36.626Z,6.73
2017-08-01T15:31:04.235Z,8.00
2017-08-01T15:33:31.847Z,11.13
2017-08-01T15:35:59.408Z,5.93
2017-08-01T15:38:27.011Z,8.00
2017-08-01T15:40:55.375Z,10.67
2017-08-01T15:43:23.707Z,10.20
2017-08-01T15:45:51.290Z,10.93
2017-08-01T15:48:18.973Z,11.00
2017-08-01T15:50:46.554Z,8.40
2017-08-01T15:53:14.904Z,10.87
2017-08-01T15:55:42.488Z,10.17
2017-08-01T15:58:10.837Z,8.00
2017-08-01T16:00:38.446Z,9.03
2017-08-01T16:03:06.788Z,10.73
2017-08-01T16:05:34.380Z,11.53
2017-08-01T16:08:02.702Z,8.50
2017-08-01T16:10:30.310Z,7.53
2017-08-01T16:12:58.658Z,9.63
2017-08-01T16:15:26.236Z,10.80
2017-08-01T16:17:53.823Z,12.10
2017-08-01T16:20:22.166Z,9.60
2017-08-01T16:22:49.747Z,9.60
2017-08-01T16:25:18.082Z,11.50
2017-08-01T16:27:45.783Z,15.00
2017-08-01T16:30:13.343Z,13.93
2017-08-01T16:32:41.710Z,13.83
2017-08-01T16:35:09.283Z,18.87
2017-08-01T16:37:37.657Z,18.83
2017-08-01T16:40:05.269Z,21.07
2017-08-01T16:42:32.865Z,15.07
2017-08-01T16:45:00.461Z,16.50
2017-08-01T16:47:28.786Z,18.37
2017-08-01T16:49:56.404Z,17.73
2017-08-01T16:52:24.774Z,17.53
2017-08-01T16:54:52.353Z,16.57
2017-08-01T16:57:20.009Z,18.63
2017-08-01T16:59:48.348Z,16.90
2017-08-01T17:02:15.926Z,24.37
2017-08-01T17:04:43.507Z,16.03
2017-08-01T17:07:11.865Z,24.07
2017-08-01T17:09:39.452Z,18.27
2017-08-01T17:12:07.812Z,29.17
2017-08-01T17:14:35.426Z,30.70
2017-08-01T17:17:03.063Z,24.33
2017-08-01T17:19:30.708Z,20.30
2017-08-01T17:21:59.047Z,23.50
2017-08-01T17:24:26.628Z,19.17
2017-08-01T17:26:54.225Z,22.13
2017-08-01T17:29:22.573Z,21.93
2017-08-01T17:31:50.144Z,19.10
2017-08-01T17:34:17.746Z,18.33
2017-08-01T17:36:45.305Z,20.90
2017-08-01T17:39:12.901Z,21.03
2017-08-01T17:41:40.522Z,24.03
2017-08-01T17:44:08.086Z,27.97
2017-08-01T17:46:35.686Z,22.43
2017-08-01T17:49:03.275Z,21.43
2017-08-01T17:51:30.865Z,22.47
2017-08-01T17:53:58.454Z,28.27
2017-08-01T17:56:26.049Z,24.50
2017-08-01T17:58:53.650Z,18.90
2017-08-01T18:01:21.239Z,26.73
2017-08-01T18:03:49.601Z,22.83
2017-08-01T18:06:17.294Z,23.53
2017-08-01T18:08:44.869Z,15.17
2017-08-01T18:11:12.480Z,18.40
2017-08-01T18:13:40.081Z,13.37
2017-08-01T18:16:07.679Z,16.60
2017-08-01T18:18:36.007Z,19.57
2017-08-01T18:21:03.621Z,12.07
2017-08-01T18:23:31.952Z,13.77
2017-08-01T18:25:59.522Z,16.50
2017-08-01T18:28:27.123Z,14.70
2017-08-01T18:30:55.441Z,9.97
2017-08-01T18:33:23.142Z,11.03
2017-08-01T18:35:50.718Z,13.60
2017-08-01T18:38:18.364Z,12.90
2017-08-01T18:40:45.925Z,19.67
2017-08-01T18:43:13.530Z,15.33
2017-08-01T18:45:41.127Z,14.93
2017-08-01T18:48:08.733Z,16.13
2017-08-01T18:50:37.074Z,12.57
2017-08-01T18:53:04.682Z,16.17
2017-08-01T18:55:32.246Z,16.23
2017-08-01T18:57:59.828Z,18.47
2017-08-01T19:00:27.414Z,19.03
2017-08-01T19:02:54.982Z,12.40
2017-08-01T19:05:22.599Z,14.30
2017-08-01T19:07:50.167Z,13.03
2017-08-01T19:10:17.730Z,11.93
2017-08-01T19:12:45.338Z,11.07
2017-08-01T19:15:12.941Z,15.23
2017-08-01T19:17:40.516Z,16.10
2017-08-01T19:20:08.069Z,12.57
2017-08-01T19:22:35.658Z,10.00
2017-08-01T19:25:03.241Z,12.90
2017-08-01T19:27:30.867Z,11.27
2017-08-01T19:29:58.462Z,13.07
2017-08-01T19:32:26.046Z,19.03
2017-08-01T19:34:53.678Z,15.43
2017-08-01T19:37:21.257Z,12.23
2017-08-01T19:39:48.858Z,16.07
2017-08-01T19:42:16.441Z,12.93
2017-08-01T19:44:44.023Z,15.00
2017-08-01T19:47:12.901Z,15.23
2017-08-01T19:49:40.460Z,11.37
2017-08-01T19:52:11.045Z,11.23
2017-08-01T19:54:38.657Z,11.40
2017-08-01T19:57:06.227Z,11.60
2017-08-01T19:59:33.847Z,8.23
2017-08-01T20:02:01.434Z,11.67
2017-08-01T20:04:29.048Z,14.37
2017-08-01T20:06:57.386Z,10.83
2017-08-01T20:09:24.954Z,10.03
2017-08-01T20:11:52.578Z,11.47
2017-08-01T20:14:20.147Z,12.17
2017-08-01T20:16:47.725Z,11.53
2017-08-01T20:19:15.317Z,11.90
2017-08-01T20:21:42.877Z,12.30
2017-08-01T20:24:10.473Z,11.83
2017-08-01T20:26:38.082Z,18.43
2017-08-01T20:29:05.706Z,26.57
2017-08-01T20:31:33.305Z,15.33
2017-08-01T20:34:00.902Z,20.63
2017-08-01T20:36:29.280Z,15.33
2017-08-01T20:38:56.864Z,16.13
2017-08-01T20:41:24.449Z,19.73
2017-08-01T20:43:52.053Z,17.47
2017-08-01T20:46:19.607Z,16.47
2017-08-01T20:48:47.301Z,18.27
2017-08-01T20:51:14.871Z,14.13
2017-08-01T20:53:42.462Z,19.47
2017-08-01T20:56:10.033Z,17.17
2017-08-01T20:58:37.617Z,17.97
2017-08-01T21:01:05.191Z,18.53
2017-08-01T21:03:32.813Z,18.43
2017-08-01T21:06:00.413Z,16.77
2017-08-01T21:08:27.983Z,16.03
2017-08-01T21:10:55.573Z,16.90
2017-08-01T21:13:23.186Z,19.00
2017-08-01T21:15:50.791Z,19.53
2017-08-01T21:18:18.356Z,17.33
2017-08-01T21:20:45.969Z,16.60
2017-08-01T21:23:13.563Z,19.57
2017-08-01T21:25:41.134Z,16.90
2017-08-01T21:28:08.714Z,21.80
2017-08-01T21:30:36.306Z,19.73
2017-08-01T21:33:04.050Z,18.63
2017-08-01T21:35:31.636Z,19.90
2017-08-01T21:37:59.197Z,19.20
2017-08-01T21:40:26.782Z,19.40
2017-08-01T21:42:54.373Z,20.50
2017-08-01T21:45:22.166Z,19.10
2017-08-01T21:47:49.825Z,18.80
2017-08-01T21:50:17.395Z,21.63
2017-08-01T21:52:45.112Z,22.50
2017-08-01T21:55:12.689Z,19.00
2017-08-01T21:57:40.290Z,18.53
2017-08-01T22:00:07.880Z,24.03
2017-08-01T22:02:36.233Z,20.83
2017-08-01T22:05:03.855Z,20.83
2017-08-01T22:07:31.420Z,20.47
2017-08-01T22:09:59.038Z,23.33
2017-08-01T22:12:27.383Z,26.33
2017-08-01T22:14:54.960Z,22.83
2017-08-01T22:17:22.630Z,20.80
2017-08-01T22:19:50.197Z,27.63
2017-08-01T22:22:17.802Z,20.87
2017-08-01T22:24:45.435Z,19.37
2017-08-01T22:27:13.038Z,21.20
2017-08-01T22:29:40.619Z,19.60
2017-08-01T22:32:08.193Z,22.30
2017-08-01T22:34:35.774Z,24.10
2017-08-01T22:37:04.134Z,20.47
2017-08-01T22:39:31.758Z,19.60
2017-08-01T22:41:59.338Z,21.63
2017-08-01T22:44:26.918Z,21.90
2017-08-01T22:46:54.482Z,27.53
2017-08-01T22:49:22.090Z,24.70
2017-08-01T22:51:50.237Z,26.13
2017-08-01T22:54:17.796Z,28.67
2017-08-01T22:56:45.399Z,25.77
2017-08-01T22:59:13.030Z,30.20
2017-08-01T23:01:40.605Z,28.10
2017-08-01T23:04:08.186Z,26.13
2017-08-01T23:06:35.806Z,30.50
2017-08-01T23:09:03.360Z,27.17
2017-08-01T23:11:30.940Z,31.47
2017-08-01T23:13:58.537Z,36.40
2017-08-01T23:16:26.133Z,27.43
2017-08-01T23:18:53.740Z,35.90
2017-08-01T23:21:21.386Z,29.67
2017-08-01T23:23:48.969Z,26.27
2017-08-01T23:26:16.540Z,24.37
2017-08-01T23:28:44.129Z,31.03
2017-08-01T23:31:11.713Z,26.80
2017-08-01T23:33:40.061Z,30.87
2017-08-01T23:36:07.634Z,33.10
2017-08-01T23:38:35.261Z,31.97
2017-08-01T23:41:02.837Z,33.07
2017-08-01T23:43:30.437Z,31.63
2017-08-01T23:45:58.777Z,33.00
2017-08-01T23:48:26.366Z,32.90
2017-08-01T23:50:54.705Z,33.07
2017-08-01T23:53:22.286Z,34.20
2017-08-01T23:55:49.896Z,32.47
2017-08-01T23:58:17.459Z,38.00
